sensor_id;sensor_type;location;lat;lon;timestamp;pressure;altitude;pressure_sealevel;temperature;humidity
74561;BME280;62979;55.720;37.606;2023-05-19T00:00:07;100354.22;;;20.11;53.64
74561;BME280;62979;55.720;37.606;2023-05-19T00:02:39;100350.72;;;20.10;53.51
74561;BME280;62979;55.720;37.606;2023-05-19T00:05:09;100358.25;;;20.02;53.70
74561;BME280;62979;55.720;37.606;2023-05-19T00:07:37;100358.53;;;19.96;53.81
74561;BME280;62979;55.720;37.606;2023-05-19T00:10:05;100361.41;;;19.76;54.41
74561;BME280;62979;55.720;37.606;2023-05-19T00:12:34;100361.91;;;19.82;54.13
74561;BME280;62979;55.720;37.606;2023-05-19T00:15:05;100367.59;;;19.92;54.08
74561;BME280;62979;55.720;37.606;2023-05-19T00:17:33;100366.25;;;19.85;54.38
74561;BME280;62979;55.720;37.606;2023-05-19T00:20:03;100372.22;;;19.88;54.29
74561;BME280;62979;55.720;37.606;2023-05-19T00:22:32;100371.38;;;19.88;53.77
74561;BME280;62979;55.720;37.606;2023-05-19T00:24:59;100382.22;;;19.83;54.10
74561;BME280;62979;55.720;37.606;2023-05-19T00:27:26;100377.78;;;19.84;53.89
74561;BME280;62979;55.720;37.606;2023-05-19T00:29:52;100384.81;;;19.85;53.79
74561;BME280;62979;55.720;37.606;2023-05-19T00:32:21;100394.47;;;19.86;53.58
74561;BME280;62979;55.720;37.606;2023-05-19T00:34:48;100394.47;;;19.86;53.61
74561;BME280;62979;55.720;37.606;2023-05-19T00:37:14;100395.34;;;19.86;53.35
74561;BME280;62979;55.720;37.606;2023-05-19T00:39:41;100392.06;;;19.81;53.82
74561;BME280;62979;55.720;37.606;2023-05-19T00:42:08;100394.03;;;19.78;53.64
74561;BME280;62979;55.720;37.606;2023-05-19T00:44:36;100409.31;;;19.73;53.57
74561;BME280;62979;55.720;37.606;2023-05-19T00:47:06;100393.66;;;19.68;53.37
74561;BME280;62979;55.720;37.606;2023-05-19T00:49:34;100400.84;;;19.64;53.51
74561;BME280;62979;55.720;37.606;2023-05-19T00:52:02;100403.03;;;19.56;53.45
74561;BME280;62979;55.720;37.606;2023-05-19T00:54:32;100404.91;;;19.54;53.51
74561;BME280;62979;55.720;37.606;2023-05-19T00:57:00;100401.53;;;19.51;53.28
74561;BME280;62979;55.720;37.606;2023-05-19T00:59:28;100402.56;;;19.48;53.56
74561;BME280;62979;55.720;37.606;2023-05-19T01:01:55;100403.78;;;19.41;53.65
74561;BME280;62979;55.720;37.606;2023-05-19T01:04:22;100408.25;;;19.40;53.65
74561;BME280;62979;55.720;37.606;2023-05-19T01:06:51;100401.13;;;19.41;53.66
74561;BME280;62979;55.720;37.606;2023-05-19T01:09:19;100415.41;;;19.38;53.94
74561;BME280;62979;55.720;37.606;2023-05-19T01:11:47;100412.22;;;19.32;53.87
74561;BME280;62979;55.720;37.606;2023-05-19T01:14:14;100409.63;;;19.30;53.92
74561;BME280;62979;55.720;37.606;2023-05-19T01:16:44;100410.50;;;19.31;53.96
74561;BME280;62979;55.720;37.606;2023-05-19T01:19:30;100405.19;;;19.31;53.97
74561;BME280;62979;55.720;37.606;2023-05-19T01:22:25;100414.53;;;19.20;54.30
74561;BME280;62979;55.720;37.606;2023-05-19T01:28:56;100423.44;;;19.19;54.76
74561;BME280;62979;55.720;37.606;2023-05-19T01:31:40;100415.47;;;19.19;54.67
74561;BME280;62979;55.720;37.606;2023-05-19T01:34:12;100419.59;;;19.08;55.33
74561;BME280;62979;55.720;37.606;2023-05-19T01:36:43;100429.97;;;19.12;55.02
74561;BME280;62979;55.720;37.606;2023-05-19T01:39:14;100423.81;;;18.93;55.32
74561;BME280;62979;55.720;37.606;2023-05-19T01:41:43;100432.56;;;18.95;55.39
74561;BME280;62979;55.720;37.606;2023-05-19T01:44:12;100427.34;;;18.93;55.41
74561;BME280;62979;55.720;37.606;2023-05-19T01:46:42;100419.81;;;18.84;55.21
74561;BME280;62979;55.720;37.606;2023-05-19T01:49:09;100434.78;;;18.85;55.15
74561;BME280;62979;55.720;37.606;2023-05-19T01:51:37;100418.91;;;18.65;54.55
74561;BME280;62979;55.720;37.606;2023-05-19T01:54:05;100430.38;;;18.65;54.11
74561;BME280;62979;55.720;37.606;2023-05-19T01:56:40;100436.03;;;18.57;54.26
74561;BME280;62979;55.720;37.606;2023-05-19T01:59:35;100433.72;;;18.50;53.28
74561;BME280;62979;55.720;37.606;2023-05-19T02:02:15;100444.81;;;18.39;52.86
74561;BME280;62979;55.720;37.606;2023-05-19T02:04:56;100455.22;;;18.23;51.81
74561;BME280;62979;55.720;37.606;2023-05-19T02:07:36;100451.72;;;18.23;51.16
74561;BME280;62979;55.720;37.606;2023-05-19T02:10:10;100462.91;;;18.09;51.20
74561;BME280;62979;55.720;37.606;2023-05-19T02:12:44;100464.75;;;18.07;50.99
74561;BME280;62979;55.720;37.606;2023-05-19T02:15:15;100450.66;;;17.86;50.44
74561;BME280;62979;55.720;37.606;2023-05-19T02:17:47;100469.00;;;17.90;50.03
74561;BME280;62979;55.720;37.606;2023-05-19T02:20:18;100467.94;;;17.72;50.21
74561;BME280;62979;55.720;37.606;2023-05-19T02:22:46;100476.00;;;17.69;50.05
74561;BME280;62979;55.720;37.606;2023-05-19T02:25:13;100473.50;;;17.66;49.70
74561;BME280;62979;55.720;37.606;2023-05-19T02:27:41;100481.44;;;17.66;49.12
74561;BME280;62979;55.720;37.606;2023-05-19T02:30:09;100471.25;;;17.55;48.72
74561;BME280;62979;55.720;37.606;2023-05-19T02:32:36;100482.78;;;17.54;48.63
74561;BME280;62979;55.720;37.606;2023-05-19T02:35:05;100478.53;;;17.50;48.75
74561;BME280;62979;55.720;37.606;2023-05-19T02:37:33;100479.69;;;17.43;48.62
74561;BME280;62979;55.720;37.606;2023-05-19T02:40:00;100474.03;;;17.52;48.72
74561;BME280;62979;55.720;37.606;2023-05-19T02:42:26;100483.03;;;17.48;48.62
74561;BME280;62979;55.720;37.606;2023-05-19T02:44:53;100494.00;;;17.39;48.51
74561;BME280;62979;55.720;37.606;2023-05-19T02:47:20;100484.44;;;17.35;48.07
74561;BME280;62979;55.720;37.606;2023-05-19T02:49:47;100482.47;;;17.40;47.82
74561;BME280;62979;55.720;37.606;2023-05-19T02:52:15;100492.38;;;17.35;47.77
74561;BME280;62979;55.720;37.606;2023-05-19T02:54:42;100478.13;;;17.39;47.99
74561;BME280;62979;55.720;37.606;2023-05-19T02:57:09;100488.44;;;17.45;47.84
74561;BME280;62979;55.720;37.606;2023-05-19T02:59:36;100489.56;;;17.40;47.44
74561;BME280;62979;55.720;37.606;2023-05-19T03:02:03;100490.34;;;17.42;47.34
74561;BME280;62979;55.720;37.606;2023-05-19T03:04:30;100495.56;;;17.43;47.44
74561;BME280;62979;55.720;37.606;2023-05-19T03:06:57;100490.22;;;17.45;46.98
74561;BME280;62979;55.720;37.606;2023-05-19T03:09:25;100488.63;;;17.41;46.84
74561;BME280;62979;55.720;37.606;2023-05-19T03:11:52;100496.50;;;17.42;47.09
74561;BME280;62979;55.720;37.606;2023-05-19T03:14:19;100499.28;;;17.39;47.59
74561;BME280;62979;55.720;37.606;2023-05-19T03:16:48;100505.53;;;17.37;47.06
74561;BME280;62979;55.720;37.606;2023-05-19T03:19:15;100497.66;;;17.35;47.15
74561;BME280;62979;55.720;37.606;2023-05-19T03:21:42;100501.25;;;17.34;47.43
74561;BME280;62979;55.720;37.606;2023-05-19T03:24:09;100508.41;;;17.30;47.04
74561;BME280;62979;55.720;37.606;2023-05-19T03:26:37;100504.25;;;17.25;46.78
74561;BME280;62979;55.720;37.606;2023-05-19T03:29:04;100506.81;;;17.26;47.32
74561;BME280;62979;55.720;37.606;2023-05-19T03:31:32;100514.88;;;17.23;47.57
74561;BME280;62979;55.720;37.606;2023-05-19T03:33:59;100509.66;;;17.22;47.78
74561;BME280;62979;55.720;37.606;2023-05-19T03:36:26;100522.66;;;17.26;48.06
74561;BME280;62979;55.720;37.606;2023-05-19T03:38:56;100523.72;;;17.22;48.44
74561;BME280;62979;55.720;37.606;2023-05-19T03:41:23;100517.97;;;17.11;49.02
74561;BME280;62979;55.720;37.606;2023-05-19T03:43:51;100536.94;;;16.99;49.56
74561;BME280;62979;55.720;37.606;2023-05-19T03:46:18;100528.84;;;17.03;49.46
74561;BME280;62979;55.720;37.606;2023-05-19T03:48:45;100519.91;;;17.07;49.52
74561;BME280;62979;55.720;37.606;2023-05-19T03:51:12;100525.91;;;17.11;49.63
74561;BME280;62979;55.720;37.606;2023-05-19T03:53:38;100538.28;;;17.10;49.81
74561;BME280;62979;55.720;37.606;2023-05-19T03:56:06;100544.81;;;17.00;50.11
74561;BME280;62979;55.720;37.606;2023-05-19T03:58:35;100538.91;;;16.94;50.40
74561;BME280;62979;55.720;37.606;2023-05-19T04:01:06;100537.19;;;16.93;50.30
74561;BME280;62979;55.720;37.606;2023-05-19T04:03:33;100549.47;;;16.94;50.28
74561;BME280;62979;55.720;37.606;2023-05-19T04:06:00;100543.66;;;16.84;50.50
74561;BME280;62979;55.720;37.606;2023-05-19T04:08:27;100548.81;;;16.87;51.62
74561;BME280;62979;55.720;37.606;2023-05-19T04:10:54;100550.56;;;16.88;52.24
74561;BME280;62979;55.720;37.606;2023-05-19T04:13:20;100545.47;;;17.07;52.97
74561;BME280;62979;55.720;37.606;2023-05-19T04:15:47;100547.78;;;17.38;52.54
74561;BME280;62979;55.720;37.606;2023-05-19T04:18:16;100556.59;;;17.61;52.02
74561;BME280;62979;55.720;37.606;2023-05-19T04:20:43;100550.34;;;17.85;51.38
74561;BME280;62979;55.720;37.606;2023-05-19T04:23:09;100549.19;;;17.92;49.52
74561;BME280;62979;55.720;37.606;2023-05-19T04:25:36;100509.34;;;17.51;49.01
74561;BME280;62979;55.720;37.606;2023-05-19T04:28:05;100546.63;;;17.89;48.98
74561;BME280;62979;55.720;37.606;2023-05-19T04:30:32;100547.88;;;18.03;49.00
74561;BME280;62979;55.720;37.606;2023-05-19T04:32:59;100548.22;;;18.15;48.37
74561;BME280;62979;55.720;37.606;2023-05-19T04:35:29;100547.16;;;18.20;48.12
74561;BME280;62979;55.720;37.606;2023-05-19T04:37:56;100557.66;;;18.21;48.50
74561;BME280;62979;55.720;37.606;2023-05-19T04:40:23;100551.84;;;18.13;48.55
74561;BME280;62979;55.720;37.606;2023-05-19T04:42:50;100554.56;;;17.89;48.63
74561;BME280;62979;55.720;37.606;2023-05-19T04:45:18;100557.22;;;17.89;49.10
74561;BME280;62979;55.720;37.606;2023-05-19T04:47:45;100555.25;;;17.94;49.56
74561;BME280;62979;55.720;37.606;2023-05-19T04:50:12;100561.72;;;17.87;49.18
74561;BME280;62979;55.720;37.606;2023-05-19T04:52:41;100563.88;;;18.00;49.41
74561;BME280;62979;55.720;37.606;2023-05-19T04:55:10;100550.03;;;17.93;48.97
74561;BME280;62979;55.720;37.606;2023-05-19T04:57:37;100560.53;;;17.94;48.90
74561;BME280;62979;55.720;37.606;2023-05-19T05:00:05;100564.25;;;17.90;48.77
74561;BME280;62979;55.720;37.606;2023-05-19T05:02:37;100555.84;;;17.79;49.18
74561;BME280;62979;55.720;37.606;2023-05-19T05:05:06;100563.47;;;17.88;49.47
74561;BME280;62979;55.720;37.606;2023-05-19T05:07:34;100565.47;;;17.82;49.58
74561;BME280;62979;55.720;37.606;2023-05-19T05:10:03;100565.47;;;17.82;50.18
74561;BME280;62979;55.720;37.606;2023-05-19T05:12:31;100557.88;;;17.72;50.59
74561;BME280;62979;55.720;37.606;2023-05-19T05:14:59;100558.81;;;17.71;50.82
74561;BME280;62979;55.720;37.606;2023-05-19T05:17:26;100569.56;;;17.90;50.65
74561;BME280;62979;55.720;37.606;2023-05-19T05:19:55;100573.50;;;18.02;50.18
74561;BME280;62979;55.720;37.606;2023-05-19T05:22:22;100573.97;;;18.12;49.98
74561;BME280;62979;55.720;37.606;2023-05-19T05:24:49;100576.97;;;18.03;50.50
74561;BME280;62979;55.720;37.606;2023-05-19T05:27:18;100580.13;;;17.90;49.88
74561;BME280;62979;55.720;37.606;2023-05-19T05:29:45;100580.59;;;17.78;50.17
74561;BME280;62979;55.720;37.606;2023-05-19T05:32:11;100577.19;;;17.74;51.43
74561;BME280;62979;55.720;37.606;2023-05-19T05:34:38;100577.38;;;17.70;51.28
74561;BME280;62979;55.720;37.606;2023-05-19T05:37:06;100576.06;;;17.82;50.76
74561;BME280;62979;55.720;37.606;2023-05-19T05:39:33;100578.25;;;17.70;50.52
74561;BME280;62979;55.720;37.606;2023-05-19T05:41:59;100579.66;;;17.79;50.01
74561;BME280;62979;55.720;37.606;2023-05-19T05:44:28;100592.78;;;17.82;50.38
74561;BME280;62979;55.720;37.606;2023-05-19T05:46:55;100589.44;;;17.77;50.72
74561;BME280;62979;55.720;37.606;2023-05-19T05:49:22;100588.63;;;17.75;50.65
74561;BME280;62979;55.720;37.606;2023-05-19T05:51:50;100591.75;;;17.86;50.60
74561;BME280;62979;55.720;37.606;2023-05-19T05:54:19;100587.81;;;17.96;50.36
74561;BME280;62979;55.720;37.606;2023-05-19T05:56:49;100591.63;;;17.89;49.90
74561;BME280;62979;55.720;37.606;2023-05-19T05:59:16;100597.34;;;18.01;50.72
74561;BME280;62979;55.720;37.606;2023-05-19T06:01:44;100596.25;;;18.06;50.07
74561;BME280;62979;55.720;37.606;2023-05-19T06:04:11;100596.38;;;18.03;49.89
74561;BME280;62979;55.720;37.606;2023-05-19T06:06:38;100602.03;;;17.94;50.12
74561;BME280;62979;55.720;37.606;2023-05-19T06:09:05;100598.22;;;18.01;50.56
74561;BME280;62979;55.720;37.606;2023-05-19T06:11:32;100592.50;;;18.12;49.82
74561;BME280;62979;55.720;37.606;2023-05-19T06:13:59;100596.19;;;18.28;49.33
74561;BME280;62979;55.720;37.606;2023-05-19T06:16:26;100604.00;;;18.11;49.55
74561;BME280;62979;55.720;37.606;2023-05-19T06:18:54;100602.53;;;18.04;49.60
74561;BME280;62979;55.720;37.606;2023-05-19T06:21:21;100597.56;;;18.16;50.15
74561;BME280;62979;55.720;37.606;2023-05-19T06:23:48;100592.03;;;18.23;49.72
74561;BME280;62979;55.720;37.606;2023-05-19T06:26:15;100598.50;;;18.15;49.67
74561;BME280;62979;55.720;37.606;2023-05-19T06:28:42;100602.25;;;18.32;49.43
74561;BME280;62979;55.720;37.606;2023-05-19T06:31:08;100602.97;;;18.35;48.89
74561;BME280;62979;55.720;37.606;2023-05-19T06:33:35;100585.69;;;18.27;49.33
74561;BME280;62979;55.720;37.606;2023-05-19T06:36:04;100599.94;;;18.45;48.42
74561;BME280;62979;55.720;37.606;2023-05-19T06:38:32;100600.72;;;18.47;48.40
74561;BME280;62979;55.720;37.606;2023-05-19T06:40:59;100600.06;;;18.62;48.03
74561;BME280;62979;55.720;37.606;2023-05-19T06:43:26;100596.44;;;18.44;47.60
74561;BME280;62979;55.720;37.606;2023-05-19T06:45:53;100611.00;;;18.54;48.13
74561;BME280;62979;55.720;37.606;2023-05-19T06:48:20;100602.34;;;18.51;47.81
74561;BME280;62979;55.720;37.606;2023-05-19T06:50:47;100591.75;;;18.51;48.16
74561;BME280;62979;55.720;37.606;2023-05-19T06:53:18;100608.00;;;18.62;47.78
74561;BME280;62979;55.720;37.606;2023-05-19T06:55:45;100606.69;;;18.52;48.42
74561;BME280;62979;55.720;37.606;2023-05-19T06:58:14;100608.00;;;18.62;47.97
74561;BME280;62979;55.720;37.606;2023-05-19T07:00:41;100612.91;;;18.71;47.87
74561;BME280;62979;55.720;37.606;2023-05-19T07:03:08;100611.22;;;18.91;47.37
74561;BME280;62979;55.720;37.606;2023-05-19T07:05:35;100597.63;;;18.98;47.21
74561;BME280;62979;55.720;37.606;2023-05-19T07:08:03;100603.56;;;19.03;47.54
74561;BME280;62979;55.720;37.606;2023-05-19T07:10:33;100610.13;;;19.15;47.20
74561;BME280;62979;55.720;37.606;2023-05-19T07:13:00;100591.16;;;19.04;46.39
74561;BME280;62979;55.720;37.606;2023-05-19T07:15:27;100606.06;;;19.07;46.64
74561;BME280;62979;55.720;37.606;2023-05-19T07:17:54;100608.38;;;18.95;46.72
74561;BME280;62979;55.720;37.606;2023-05-19T07:20:21;100607.88;;;19.06;46.60
74561;BME280;62979;55.720;37.606;2023-05-19T07:22:48;100606.81;;;19.10;46.21
74561;BME280;62979;55.720;37.606;2023-05-19T07:25:15;100607.25;;;19.20;46.30
74561;BME280;62979;55.720;37.606;2023-05-19T07:27:43;100609.72;;;19.24;46.09
74561;BME280;62979;55.720;37.606;2023-05-19T07:30:11;100606.53;;;19.16;46.30
74561;BME280;62979;55.720;37.606;2023-05-19T07:32:38;100595.06;;;19.16;46.19
74561;BME280;62979;55.720;37.606;2023-05-19T07:35:05;100608.81;;;19.05;45.37
74561;BME280;62979;55.720;37.606;2023-05-19T07:37:32;100608.03;;;19.03;46.08
74561;BME280;62979;55.720;37.606;2023-05-19T07:40:00;100608.03;;;19.03;45.53
74561;BME280;62979;55.720;37.606;2023-05-19T07:42:27;100610.38;;;19.09;45.53
74561;BME280;62979;55.720;37.606;2023-05-19T07:44:55;100604.00;;;19.13;45.29
74561;BME280;62979;55.720;37.606;2023-05-19T07:47:22;100609.50;;;19.29;45.04
74561;BME280;62979;55.720;37.606;2023-05-19T07:49:49;100601.44;;;19.31;43.82
74561;BME280;62979;55.720;37.606;2023-05-19T07:52:16;100601.63;;;19.46;43.84
74561;BME280;62979;55.720;37.606;2023-05-19T07:54:44;100606.13;;;19.63;43.60
74561;BME280;62979;55.720;37.606;2023-05-19T07:57:11;100608.13;;;19.77;43.73
74561;BME280;62979;55.720;37.606;2023-05-19T07:59:38;100611.34;;;19.84;43.48
74561;BME280;62979;55.720;37.606;2023-05-19T08:02:06;100619.13;;;20.06;42.20
74561;BME280;62979;55.720;37.606;2023-05-19T08:04:33;100607.34;;;20.12;42.17
74561;BME280;62979;55.720;37.606;2023-05-19T08:07:00;100607.63;;;20.24;41.91
74561;BME280;62979;55.720;37.606;2023-05-19T08:09:27;100611.47;;;20.36;41.10
74561;BME280;62979;55.720;37.606;2023-05-19T08:11:54;100614.41;;;20.47;41.00
74561;BME280;62979;55.720;37.606;2023-05-19T08:14:23;100618.66;;;20.51;40.98
74561;BME280;62979;55.720;37.606;2023-05-19T08:16:51;100610.44;;;20.39;39.55
74561;BME280;62979;55.720;37.606;2023-05-19T08:19:19;100617.91;;;20.30;40.62
74561;BME280;62979;55.720;37.606;2023-05-19T08:21:46;100614.66;;;20.43;39.02
74561;BME280;62979;55.720;37.606;2023-05-19T08:24:13;100616.56;;;20.58;38.92
74561;BME280;62979;55.720;37.606;2023-05-19T08:26:42;100617.25;;;20.62;38.26
74561;BME280;62979;55.720;37.606;2023-05-19T08:29:09;100618.47;;;20.89;37.86
74561;BME280;62979;55.720;37.606;2023-05-19T08:31:36;100617.28;;;21.28;36.84
74561;BME280;62979;55.720;37.606;2023-05-19T08:34:03;100611.00;;;21.47;35.96
74561;BME280;62979;55.720;37.606;2023-05-19T08:36:31;100605.50;;;21.50;34.58
74561;BME280;62979;55.720;37.606;2023-05-19T08:38:59;100614.84;;;21.08;35.43
74561;BME280;62979;55.720;37.606;2023-05-19T08:41:26;100617.56;;;21.06;34.26
74561;BME280;62979;55.720;37.606;2023-05-19T08:43:53;100619.34;;;21.23;35.41
74561;BME280;62979;55.720;37.606;2023-05-19T08:46:25;100615.47;;;21.46;33.85
74561;BME280;62979;55.720;37.606;2023-05-19T08:48:53;100604.47;;;21.52;33.58
74561;BME280;62979;55.720;37.606;2023-05-19T08:51:35;100618.38;;;21.57;33.29
74561;BME280;62979;55.720;37.606;2023-05-19T08:54:11;100617.25;;;21.77;33.20
74561;BME280;62979;55.720;37.606;2023-05-19T08:56:42;100609.56;;;21.73;32.54
74561;BME280;62979;55.720;37.606;2023-05-19T08:59:12;100600.09;;;21.67;32.76
74561;BME280;62979;55.720;37.606;2023-05-19T09:01:41;100608.34;;;21.78;32.55
74561;BME280;62979;55.720;37.606;2023-05-19T09:04:11;100595.19;;;21.91;31.96
74561;BME280;62979;55.720;37.606;2023-05-19T09:06:40;100604.88;;;22.08;31.35
74561;BME280;62979;55.720;37.606;2023-05-19T09:09:09;100599.78;;;22.19;32.17
74561;BME280;62979;55.720;37.606;2023-05-19T09:11:36;100604.78;;;22.26;31.65
74561;BME280;62979;55.720;37.606;2023-05-19T09:14:03;100605.59;;;22.42;31.17
74561;BME280;62979;55.720;37.606;2023-05-19T09:16:30;100591.31;;;22.43;31.11
74561;BME280;62979;55.720;37.606;2023-05-19T09:18:58;100583.97;;;22.32;30.50
74561;BME280;62979;55.720;37.606;2023-05-19T09:21:28;100580.16;;;22.36;29.98
74561;BME280;62979;55.720;37.606;2023-05-19T09:24:02;100603.81;;;22.57;30.68
74561;BME280;62979;55.720;37.606;2023-05-19T09:26:35;100594.81;;;22.74;29.71
74561;BME280;62979;55.720;37.606;2023-05-19T09:29:10;100607.75;;;22.94;29.72
74561;BME280;62979;55.720;37.606;2023-05-19T09:31:38;100592.06;;;23.04;29.33
74561;BME280;62979;55.720;37.606;2023-05-19T09:34:11;100590.91;;;22.94;30.12
74561;BME280;62979;55.720;37.606;2023-05-19T09:36:39;100602.59;;;22.77;28.54
74561;BME280;62979;55.720;37.606;2023-05-19T09:39:13;100576.50;;;22.82;29.47
74561;BME280;62979;55.720;37.606;2023-05-19T09:41:40;100587.56;;;22.76;28.99
74561;BME280;62979;55.720;37.606;2023-05-19T09:44:11;100585.81;;;23.05;29.93
74561;BME280;62979;55.720;37.606;2023-05-19T09:46:46;100581.56;;;23.58;29.12
74561;BME280;62979;55.720;37.606;2023-05-19T09:49:18;100576.75;;;23.78;27.39
74561;BME280;62979;55.720;37.606;2023-05-19T09:51:48;100584.06;;;23.88;27.22
74561;BME280;62979;55.720;37.606;2023-05-19T09:54:19;100582.69;;;23.96;28.00
74561;BME280;62979;55.720;37.606;2023-05-19T09:56:55;100582.22;;;24.16;27.74
74561;BME280;62979;55.720;37.606;2023-05-19T09:59:24;100580.63;;;23.86;26.30
74561;BME280;62979;55.720;37.606;2023-05-19T10:01:53;100576.00;;;24.16;26.54
74561;BME280;62979;55.720;37.606;2023-05-19T10:04:21;100577.84;;;24.68;25.72
74561;BME280;62979;55.720;37.606;2023-05-19T10:06:51;100586.41;;;24.86;25.28
74561;BME280;62979;55.720;37.606;2023-05-19T10:09:23;100573.66;;;25.15;24.74
74561;BME280;62979;55.720;37.606;2023-05-19T10:11:51;100559.78;;;25.47;25.32
74561;BME280;62979;55.720;37.606;2023-05-19T10:14:21;100570.34;;;25.85;24.49
74561;BME280;62979;55.720;37.606;2023-05-19T10:16:49;100570.00;;;25.66;24.37
74561;BME280;62979;55.720;37.606;2023-05-19T10:19:20;100572.66;;;26.02;24.47
74561;BME280;62979;55.720;37.606;2023-05-19T10:21:48;100563.84;;;26.24;24.11
74561;BME280;62979;55.720;37.606;2023-05-19T10:24:15;100560.75;;;26.18;23.46
74561;BME280;62979;55.720;37.606;2023-05-19T10:26:48;100575.44;;;26.01;23.60
74561;BME280;62979;55.720;37.606;2023-05-19T10:29:22;100560.72;;;26.07;23.06
74561;BME280;62979;55.720;37.606;2023-05-19T10:31:54;100568.41;;;26.11;23.47
74561;BME280;62979;55.720;37.606;2023-05-19T10:34:58;100561.81;;;26.39;23.04
74561;BME280;62979;55.720;37.606;2023-05-19T10:37:44;100569.81;;;26.28;22.91
74561;BME280;62979;55.720;37.606;2023-05-19T10:40:20;100580.38;;;26.18;23.31
74561;BME280;62979;55.720;37.606;2023-05-19T10:43:01;100574.34;;;26.03;23.50
74561;BME280;62979;55.720;37.606;2023-05-19T10:45:44;100572.66;;;25.16;23.33
74561;BME280;62979;55.720;37.606;2023-05-19T10:48:13;100569.53;;;24.32;24.17
74561;BME280;62979;55.720;37.606;2023-05-19T10:50:43;100556.16;;;24.32;24.86
74561;BME280;62979;55.720;37.606;2023-05-19T10:53:15;100568.91;;;24.42;25.83
74561;BME280;62979;55.720;37.606;2023-05-19T10:55:44;100565.69;;;23.97;24.44
74561;BME280;62979;55.720;37.606;2023-05-19T10:58:35;100573.97;;;23.65;26.50
74561;BME280;62979;55.720;37.606;2023-05-19T11:01:06;100568.56;;;23.93;26.52
74561;BME280;62979;55.720;37.606;2023-05-19T11:03:46;100563.31;;;24.19;25.80
74561;BME280;62979;55.720;37.606;2023-05-19T11:06:18;100571.66;;;24.27;25.91
74561;BME280;62979;55.720;37.606;2023-05-19T11:08:52;100577.81;;;24.55;25.74
74561;BME280;62979;55.720;37.606;2023-05-19T11:11:21;100571.00;;;24.76;25.39
74561;BME280;62979;55.720;37.606;2023-05-19T11:13:51;100567.97;;;24.94;25.28
74561;BME280;62979;55.720;37.606;2023-05-19T11:16:25;100563.28;;;24.97;24.43
74561;BME280;62979;55.720;37.606;2023-05-19T11:18:54;100565.00;;;24.86;23.80
74561;BME280;62979;55.720;37.606;2023-05-19T11:21:21;100561.25;;;24.88;25.32
74561;BME280;62979;55.720;37.606;2023-05-19T11:23:50;100558.38;;;24.78;25.76
74561;BME280;62979;55.720;37.606;2023-05-19T11:26:41;100551.50;;;25.00;25.18
74561;BME280;62979;55.720;37.606;2023-05-19T11:29:09;100553.44;;;24.98;24.70
74561;BME280;62979;55.720;37.606;2023-05-19T11:31:37;100555.19;;;25.36;25.27
74561;BME280;62979;55.720;37.606;2023-05-19T11:34:05;100541.63;;;25.26;23.85
74561;BME280;62979;55.720;37.606;2023-05-19T11:36:35;100553.19;;;25.14;23.62
74561;BME280;62979;55.720;37.606;2023-05-19T11:39:03;100561.22;;;25.27;24.19
74561;BME280;62979;55.720;37.606;2023-05-19T11:41:31;100559.78;;;25.47;24.54
74561;BME280;62979;55.720;37.606;2023-05-19T11:43:58;100554.94;;;25.52;24.61
74561;BME280;62979;55.720;37.606;2023-05-19T11:46:27;100556.47;;;25.43;24.79
74561;BME280;62979;55.720;37.606;2023-05-19T11:48:54;100557.28;;;25.80;24.75
74561;BME280;62979;55.720;37.606;2023-05-19T11:51:21;100559.75;;;26.08;24.13
74561;BME280;62979;55.720;37.606;2023-05-19T11:53:48;100564.50;;;26.39;23.82
74561;BME280;62979;55.720;37.606;2023-05-19T11:56:16;100568.91;;;26.52;23.02
74561;BME280;62979;55.720;37.606;2023-05-19T11:58:42;100573.00;;;26.80;22.71
74561;BME280;62979;55.720;37.606;2023-05-19T12:01:09;100559.81;;;26.30;21.46
74561;BME280;62979;55.720;37.606;2023-05-19T12:03:38;100570.31;;;26.68;22.47
74561;BME280;62979;55.720;37.606;2023-05-19T12:06:05;100570.84;;;26.50;21.75
74561;BME280;62979;55.720;37.606;2023-05-19T12:08:34;100572.16;;;26.79;22.08
74561;BME280;62979;55.720;37.606;2023-05-19T12:11:02;100566.44;;;26.95;21.30
74561;BME280;62979;55.720;37.606;2023-05-19T12:13:30;100553.84;;;26.84;21.84
74561;BME280;62979;55.720;37.606;2023-05-19T12:15:58;100574.34;;;26.97;21.54
74561;BME280;62979;55.720;37.606;2023-05-19T12:18:28;100565.09;;;26.78;20.96
74561;BME280;62979;55.720;37.606;2023-05-19T12:20:58;100577.25;;;26.82;21.83
74561;BME280;62979;55.720;37.606;2023-05-19T12:23:26;100575.81;;;26.78;21.03
74561;BME280;62979;55.720;37.606;2023-05-19T12:25:55;100580.56;;;26.86;21.11
74561;BME280;62979;55.720;37.606;2023-05-19T12:28:23;100572.88;;;26.81;20.47
74561;BME280;62979;55.720;37.606;2023-05-19T12:30:51;100569.16;;;26.48;19.76
74561;BME280;62979;55.720;37.606;2023-05-19T12:33:19;100573.91;;;26.10;20.49
74561;BME280;62979;55.720;37.606;2023-05-19T12:35:48;100569.41;;;25.86;20.63
74561;BME280;62979;55.720;37.606;2023-05-19T12:38:18;100564.81;;;25.75;20.93
74561;BME280;62979;55.720;37.606;2023-05-19T12:40:45;100567.91;;;26.06;21.66
74561;BME280;62979;55.720;37.606;2023-05-19T12:43:20;100582.66;;;26.47;21.22
74561;BME280;62979;55.720;37.606;2023-05-19T12:45:47;100579.91;;;26.60;20.59
74561;BME280;62979;55.720;37.606;2023-05-19T12:48:14;100585.94;;;26.39;20.98
74561;BME280;62979;55.720;37.606;2023-05-19T12:50:41;100586.19;;;26.47;20.38
74561;BME280;62979;55.720;37.606;2023-05-19T12:53:10;100582.56;;;26.48;20.68